Time;durP1;ratioP1;P1;durP2;ratioP2;P2;SDS_P1;SDS_P2;PMS_P1;PMS_P2;Temp;Humidity;BMP_temperature;BMP_pressure;BME280_temperature;BME280_humidity;BME280_pressure;Samples;Min_cycle;Max_cycle;Signal;HPM_P1;HPM_P2
2022/09/30 00:01:47;;;;;;;17.10;9.10;;;;;;;12.31;91.68;98520.59;1632537;88;20990;-85
2022/09/30 00:04:18;;;;;;;17.95;9.85;;;;;;;12.30;91.79;98529.77;1632581;88;21046;-84
2022/09/30 00:06:46;;;;;;;19.75;10.05;;;;;;;12.30;91.41;98531.08;1633619;85;21010;-86
2022/09/30 00:09:14;;;;;;;17.95;8.38;;;;;;;12.29;91.53;98518.94;1639192;86;21023;-85
2022/09/30 00:11:42;;;;;;;22.05;9.00;;;;;;;12.28;90.95;98522.47;1635894;86;21029;-86
2022/09/30 00:14:16;;;;;;;19.77;8.33;;;;;;;12.27;91.43;98523.37;1634303;87;21043;-82
2022/09/30 00:16:44;;;;;;;14.53;8.48;;;;;;;12.26;91.45;98533.42;1607821;88;21026;-82
2022/09/30 00:19:12;;;;;;;19.67;8.40;;;;;;;12.22;91.91;98521.42;1670183;85;20993;-85
2022/09/30 00:21:40;;;;;;;14.87;8.30;;;;;;;12.28;91.29;98532.89;1666163;85;21014;-84
2022/09/30 00:24:08;;;;;;;19.25;8.50;;;;;;;12.26;90.65;98522.99;1609981;88;21020;-84
2022/09/30 00:26:36;;;;;;;17.75;7.90;;;;;;;12.26;91.26;98525.14;1636784;86;21066;-84
2022/09/30 00:29:04;;;;;;;12.63;7.50;;;;;;;12.27;90.26;98519.46;1660763;85;20998;-85
2022/09/30 00:31:34;;;;;;;15.10;7.40;;;;;;;12.22;90.74;98509.70;1672292;85;21030;-82
2022/09/30 00:34:05;;;;;;;13.35;7.22;;;;;;;12.23;91.26;98501.79;1630765;88;21030;-83
2022/09/30 00:36:50;;;;;;;14.47;6.85;;;;;;;12.26;90.84;98506.05;1631599;88;21061;-86
2022/09/30 00:39:25;;;;;;;19.62;7.03;;;;;;;12.23;90.67;98491.83;1665106;85;21797;-82
2022/09/30 00:42:00;;;;;;;14.35;6.80;;;;;;;12.21;90.03;98496.26;1677860;85;21009;-86
2022/09/30 00:44:49;;;;;;;11.65;6.37;;;;;;;12.16;90.71;98491.71;1629592;88;20999;-85
2022/09/30 00:47:48;;;;;;;15.53;7.55;;;;;;;12.15;90.27;98485.63;1669338;85;21037;-85
2022/09/30 00:50:36;;;;;;;17.87;7.00;;;;;;;12.16;91.29;98490.41;1626054;88;21007;-84
2022/09/30 00:53:15;;;;;;;11.15;6.28;;;;;;;12.16;91.26;98484.73;1617452;88;21047;-85
2022/09/30 00:56:18;;;;;;;14.60;6.83;;;;;;;12.16;91.47;98495.16;1652039;85;21002;-85
2022/09/30 00:58:56;;;;;;;13.35;6.37;;;;;;;12.16;92.03;98493.85;1655441;85;21153;-86
2022/09/30 01:01:24;;;;;;;12.13;6.67;;;;;;;12.15;92.10;98486.93;1634374;86;21013;-84
2022/09/30 01:03:56;;;;;;;13.58;7.60;;;;;;;12.14;91.07;98487.86;1631496;87;20991;-84
2022/09/30 01:06:24;;;;;;;12.05;6.97;;;;;;;12.12;90.80;98498.34;1659178;85;20978;-86
2022/09/30 01:08:51;;;;;;;11.70;6.12;;;;;;;12.08;90.79;98512.40;1665940;85;21030;-85
2022/09/30 01:11:19;;;;;;;15.58;6.20;;;;;;;12.05;91.77;98507.30;1633121;88;20988;-86
2022/09/30 01:13:51;;;;;;;12.58;6.45;;;;;;;12.03;91.23;98520.84;1632610;88;21499;-86
2022/09/30 01:16:38;;;;;;;15.60;6.40;;;;;;;11.98;89.89;98513.69;1622542;88;21022;-84
2022/09/30 01:19:37;;;;;;;15.53;5.92;;;;;;;11.88;92.20;98518.84;1622410;88;21046;-84
2022/09/30 01:22:15;;;;;;;9.40;5.55;;;;;;;11.85;90.44;98515.04;1630887;88;21525;-83
2022/09/30 01:25:20;;;;;;;12.47;6.08;;;;;;;11.75;90.20;98502.83;1618728;86;21523;-82
2022/09/30 01:28:39;;;;;;;14.87;6.75;;;;;;;11.69;91.11;98500.01;1620367;88;20986;-85
2022/09/30 01:31:30;;;;;;;14.60;6.22;;;;;;;11.70;91.44;98499.58;1625628;88;21007;-87
2022/09/30 01:34:28;;;;;;;13.08;6.70;;;;;;;11.73;91.93;98507.25;1629721;88;21009;-85
2022/09/30 01:37:19;;;;;;;17.90;7.05;;;;;;;11.74;91.47;98506.36;1633172;86;21015;-83
2022/09/30 01:40:13;;;;;;;13.50;6.47;;;;;;;11.66;91.58;98511.02;1633634;87;21482;-86
2022/09/30 01:43:08;;;;;;;12.55;6.70;;;;;;;11.61;91.08;98513.78;1635169;88;21034;-86
2022/09/30 01:45:47;;;;;;;13.30;6.85;;;;;;;11.63;92.06;98510.67;1599976;87;21042;-83
2022/09/30 01:48:26;;;;;;;13.18;6.60;;;;;;;11.66;91.87;98503.21;1622840;87;21054;-87
2022/09/30 01:51:02;;;;;;;13.80;6.45;;;;;;;11.65;91.87;98501.04;1630656;87;21033;-85
2022/09/30 01:53:46;;;;;;;13.03;6.37;;;;;;;11.67;91.03;98482.30;1633959;88;20987;-85
2022/09/30 01:56:40;;;;;;;13.80;6.53;;;;;;;11.63;90.85;98485.94;1651605;85;21054;-86
2022/09/30 01:59:31;;;;;;;13.62;6.72;;;;;;;11.57;90.61;98473.16;1681281;85;21001;-83
2022/09/30 02:02:07;;;;;;;16.05;6.80;;;;;;;11.54;90.95;98473.30;1611790;88;21010;-89
2022/09/30 02:04:40;;;;;;;16.77;7.50;;;;;;;11.50;90.74;98476.46;1682962;85;21017;-86
2022/09/30 02:07:16;;;;;;;11.85;6.72;;;;;;;11.50;91.63;98488.17;1677398;85;21025;-85
2022/09/30 02:10:01;;;;;;;12.25;6.65;;;;;;;11.52;91.72;98485.06;1687062;85;21012;-81
2022/09/30 02:12:33;;;;;;;13.13;7.10;;;;;;;11.54;92.73;98485.01;1680410;85;21005;-83
2022/09/30 02:15:11;;;;;;;13.88;6.85;;;;;;;11.62;93.03;98484.25;1680781;85;21018;-87
2022/09/30 02:17:45;;;;;;;21.97;7.45;;;;;;;11.63;93.08;98489.84;1681556;85;20990;-88
2022/09/30 02:20:21;;;;;;;12.98;6.90;;;;;;;11.62;92.69;98480.34;1682256;85;21001;-86
2022/09/30 02:22:56;;;;;;;17.57;7.47;;;;;;;11.64;92.67;98488.95;1660505;85;20989;-87
2022/09/30 02:25:35;;;;;;;14.55;7.37;;;;;;;11.63;93.03;98493.74;1651659;85;21077;-87
2022/09/30 02:28:07;;;;;;;11.93;7.20;;;;;;;11.67;92.80;98499.69;1677486;85;21483;-86
2022/09/30 02:30:41;;;;;;;13.48;7.40;;;;;;;11.72;93.56;98497.77;1683111;85;21041;-84
2022/09/30 02:33:14;;;;;;;15.13;8.03;;;;;;;11.74;92.46;98490.73;1680162;85;20966;-86
2022/09/30 02:35:50;;;;;;;15.05;7.75;;;;;;;11.72;92.58;98499.06;1682334;85;21038;-89
2022/09/30 02:38:22;;;;;;;11.15;6.83;;;;;;;11.73;94.08;98496.84;1678545;85;21029;-85
2022/09/30 02:41:10;;;;;;;14.63;8.00;;;;;;;11.77;94.68;98501.02;1681918;85;21534;-84
2022/09/30 02:43:40;;;;;;;16.27;8.23;;;;;;;11.82;94.10;98509.51;1683214;85;21017;-86
2022/09/30 02:46:19;;;;;;;16.02;8.10;;;;;;;11.90;94.54;98517.05;1636463;87;21085;-86
2022/09/30 02:49:10;;;;;;;15.40;8.70;;;;;;;11.97;94.59;98523.70;1683111;85;21025;-85
2022/09/30 02:52:02;;;;;;;18.95;8.33;;;;;;;12.01;94.05;98529.17;1682646;85;21034;-85
2022/09/30 02:54:47;;;;;;;14.87;7.78;;;;;;;12.05;94.10;98528.14;1684986;85;21025;-84
2022/09/30 02:57:23;;;;;;;13.48;7.87;;;;;;;12.06;93.53;98529.85;1683457;85;21041;-87
2022/09/30 02:59:52;;;;;;;15.25;7.40;;;;;;;12.03;93.04;98536.48;1686626;85;21033;-84
2022/09/30 03:02:20;;;;;;;16.12;7.90;;;;;;;12.04;93.52;98530.37;1688227;85;21038;-85
2022/09/30 03:04:50;;;;;;;22.13;7.95;;;;;;;12.07;93.87;98532.84;1680072;85;21024;-84
2022/09/30 03:07:18;;;;;;;13.68;7.03;;;;;;;12.12;94.15;98533.98;1675477;85;21050;-85
2022/09/30 03:09:45;;;;;;;13.93;7.30;;;;;;;12.16;93.21;98530.33;1674722;85;21009;-85
2022/09/30 03:12:39;;;;;;;15.60;7.17;;;;;;;12.11;93.24;98530.50;1681623;85;21012;-83
2022/09/30 03:15:28;;;;;;;11.43;6.83;;;;;;;12.10;93.37;98526.21;1686611;85;21033;-88
2022/09/30 03:18:08;;;;;;;12.90;7.30;;;;;;;12.06;93.28;98519.89;1686596;85;20973;-87
2022/09/30 03:20:50;;;;;;;13.98;7.25;;;;;;;12.05;93.48;98526.84;1677584;85;21010;-87
2022/09/30 03:23:35;;;;;;;12.65;7.12;;;;;;;12.05;93.80;98526.84;1684070;85;21065;-89
2022/09/30 03:26:19;;;;;;;10.68;6.62;;;;;;;12.06;93.67;98501.66;1676343;84;21073;-86
2022/09/30 03:28:53;;;;;;;11.35;7.20;;;;;;;12.06;93.47;98489.47;1684907;85;20974;-86
2022/09/30 03:31:37;;;;;;;15.83;8.25;;;;;;;11.97;93.21;98498.11;1682805;85;21036;-83
2022/09/30 03:34:26;;;;;;;12.82;7.83;;;;;;;11.98;93.86;98518.89;1686765;85;21017;-84
2022/09/30 03:37:23;;;;;;;14.58;8.28;;;;;;;12.01;93.97;98510.94;1678831;85;20989;-85
2022/09/30 03:40:09;;;;;;;13.20;7.45;;;;;;;12.02;94.36;98512.65;1670902;85;21029;-85
2022/09/30 03:42:46;;;;;;;12.75;7.72;;;;;;;12.01;94.01;98503.59;1680772;85;21021;-85
2022/09/30 03:45:23;;;;;;;16.40;8.43;;;;;;;11.99;93.56;98506.25;1687060;85;21501;-85
2022/09/30 03:47:55;;;;;;;15.80;8.43;;;;;;;11.95;94.36;98512.49;1675743;85;20997;-88
2022/09/30 03:50:25;;;;;;;17.65;8.68;;;;;;;11.91;94.37;98519.57;1664102;85;21554;-87
2022/09/30 03:52:52;;;;;;;16.45;8.10;;;;;;;11.88;93.82;98516.23;1685424;84;20985;-87
2022/09/30 03:55:22;;;;;;;13.62;8.33;;;;;;;11.88;93.82;98511.02;1685221;85;21021;-86
2022/09/30 03:57:51;;;;;;;16.35;7.78;;;;;;;11.89;93.18;98525.77;1659370;85;20989;-84
2022/09/30 04:00:18;;;;;;;17.67;8.28;;;;;;;11.84;93.96;98532.89;1622440;88;21057;-88
2022/09/30 04:02:47;;;;;;;14.87;8.00;;;;;;;11.82;93.80;98528.20;1638856;87;21061;-82
2022/09/30 04:05:14;;;;;;;19.62;8.60;;;;;;;11.80;93.62;98520.44;1641978;87;21066;-83
2022/09/30 04:07:42;;;;;;;18.50;8.50;;;;;;;11.80;94.31;98519.14;1666412;86;21050;-81
2022/09/30 04:10:11;;;;;;;16.80;8.35;;;;;;;11.79;94.33;98530.91;1667868;86;21077;-86
2022/09/30 04:12:39;;;;;;;18.55;8.53;;;;;;;11.77;94.70;98532.73;1666779;86;20995;-82
2022/09/30 04:15:07;;;;;;;16.25;8.13;;;;;;;11.75;94.42;98537.98;1649882;86;21025;-81
2022/09/30 04:17:35;;;;;;;17.40;8.28;;;;;;;11.77;94.41;98545.75;1657375;86;20993;-81
2022/09/30 04:20:02;;;;;;;16.30;7.95;;;;;;;11.71;94.54;98554.17;1622701;88;21008;-84
2022/09/30 04:22:30;;;;;;;17.40;7.87;;;;;;;11.67;94.58;98553.06;1626934;87;21078;-85
2022/09/30 04:24:57;;;;;;;17.15;7.55;;;;;;;11.71;95.14;98548.97;1640049;86;21136;-83
2022/09/30 04:27:26;;;;;;;15.43;8.08;;;;;;;11.74;95.04;98550.63;1644292;85;20986;-85
2022/09/30 04:29:53;;;;;;;18.40;8.08;;;;;;;11.72;95.20;98561.09;1636842;86;21026;-86
2022/09/30 04:32:21;;;;;;;18.82;7.95;;;;;;;11.70;96.49;98568.58;1683482;85;20957;-84
2022/09/30 04:34:49;;;;;;;18.45;8.63;;;;;;;11.70;95.45;98573.33;1664333;85;20999;-86
2022/09/30 04:37:17;;;;;;;14.10;7.80;;;;;;;11.70;95.57;98581.60;1621639;88;20977;-88
2022/09/30 04:39:44;;;;;;;15.30;8.18;;;;;;;11.77;96.87;98586.95;1638061;86;21525;-85
2022/09/30 04:42:12;;;;;;;14.90;8.05;;;;;;;11.84;95.98;98579.78;1667248;86;21052;-84
2022/09/30 04:44:39;;;;;;;15.78;8.38;;;;;;;11.89;96.09;98572.19;1681833;85;21013;-86
2022/09/30 04:47:08;;;;;;;19.23;8.70;;;;;;;11.95;96.02;98560.69;1682790;85;21044;-86
2022/09/30 04:49:35;;;;;;;14.15;7.28;;;;;;;12.02;96.03;98562.61;1683320;85;21834;-89
2022/09/30 04:52:03;;;;;;;14.55;8.25;;;;;;;12.08;95.26;98574.09;1678288;85;21501;-83
2022/09/30 04:54:30;;;;;;;17.17;8.73;;;;;;;12.12;95.47;98592.60;1680088;85;21600;-85
2022/09/30 04:56:58;;;;;;;14.47;7.70;;;;;;;12.18;95.59;98604.08;1669906;86;21533;-81
2022/09/30 04:59:25;;;;;;;19.07;8.38;;;;;;;12.22;95.27;98605.66;1652237;86;21849;-85
2022/09/30 05:01:53;;;;;;;12.78;7.22;;;;;;;12.26;95.27;98606.39;1682457;85;21647;-88
2022/09/30 05:04:20;;;;;;;12.88;6.87;;;;;;;12.27;95.14;98601.09;1682850;84;21557;-86
2022/09/30 05:06:48;;;;;;;11.85;6.55;;;;;;;12.32;94.99;98604.84;1678223;85;21013;-84
2022/09/30 05:09:16;;;;;;;16.50;7.85;;;;;;;12.38;94.84;98601.98;1676051;85;21050;-83
2022/09/30 05:11:43;;;;;;;15.10;6.92;;;;;;;12.43;95.16;98600.02;1683128;85;21532;-88
2022/09/30 05:14:11;;;;;;;16.35;8.98;;;;;;;12.51;95.40;98604.93;1689057;85;21033;-81
2022/09/30 05:16:38;;;;;;;15.25;7.05;;;;;;;12.58;94.98;98598.56;1678442;85;21044;-85
2022/09/30 05:19:06;;;;;;;16.27;7.90;;;;;;;12.62;94.58;98606.66;1661200;86;21035;-86
2022/09/30 05:21:34;;;;;;;13.68;7.70;;;;;;;12.66;94.57;98608.69;1666318;86;21030;-81
2022/09/30 05:24:02;;;;;;;14.75;7.55;;;;;;;12.67;93.62;98613.84;1667875;85;20998;-85
2022/09/30 05:26:31;;;;;;;13.40;7.47;;;;;;;12.64;94.27;98614.42;1671143;85;21155;-81
2022/09/30 05:28:59;;;;;;;13.60;6.90;;;;;;;12.62;93.79;98617.55;1675259;85;21038;-80
2022/09/30 05:31:26;;;;;;;15.35;7.12;;;;;;;12.59;94.00;98618.96;1671248;85;21078;-88
2022/09/30 05:33:54;;;;;;;13.35;7.42;;;;;;;12.61;93.88;98624.96;1650758;86;21075;-82
2022/09/30 05:36:21;;;;;;;20.12;9.45;;;;;;;12.64;94.20;98624.85;1672215;85;21034;-82
2022/09/30 05:38:53;;;;;;;15.15;8.15;;;;;;;12.70;94.64;98625.91;1645589;87;20999;-81
2022/09/30 05:41:21;;;;;;;14.00;7.78;;;;;;;12.74;94.27;98631.38;1654010;86;21070;-84
2022/09/30 05:43:49;;;;;;;13.93;7.47;;;;;;;12.76;94.22;98641.30;1648707;87;21498;-84
2022/09/30 05:46:18;;;;;;;15.58;8.03;;;;;;;12.76;93.83;98642.59;1652271;86;21034;-85
2022/09/30 05:48:47;;;;;;;18.02;8.53;;;;;;;12.76;93.53;98639.15;1640694;87;20962;-84
2022/09/30 05:51:14;;;;;;;15.68;8.10;;;;;;;12.76;93.95;98629.56;1645835;87;21008;-84
2022/09/30 05:53:42;;;;;;;18.57;9.58;;;;;;;12.78;93.53;98643.38;1652749;85;20986;-82
2022/09/30 05:56:10;;;;;;;24.30;9.08;;;;;;;12.80;94.08;98641.56;1650323;85;21010;-83
2022/09/30 05:58:40;;;;;;;17.92;8.85;;;;;;;12.86;94.09;98647.82;1638237;86;21062;-81
2022/09/30 06:01:13;;;;;;;16.70;8.35;;;;;;;12.92;94.11;98651.94;1649640;85;20999;-84
2022/09/30 06:03:44;;;;;;;15.13;7.85;;;;;;;13.00;94.25;98643.80;1659295;85;21014;-84
2022/09/30 06:06:14;;;;;;;14.87;8.10;;;;;;;12.96;93.80;98643.07;1661273;86;21494;-85
2022/09/30 06:08:42;;;;;;;15.25;7.58;;;;;;;12.94;93.23;98650.95;1672283;86;20993;-81
2022/09/30 06:11:14;;;;;;;14.43;8.23;;;;;;;13.00;93.51;98655.54;1668864;86;21006;-83
2022/09/30 06:13:43;;;;;;;14.00;8.33;;;;;;;13.03;93.31;98655.39;1663815;86;21002;-83
2022/09/30 06:16:12;;;;;;;17.67;9.18;;;;;;;13.06;93.12;98653.97;1655329;85;21060;-83
2022/09/30 06:18:40;;;;;;;16.42;8.15;;;;;;;13.16;94.19;98661.80;1661647;85;21006;-81
2022/09/30 06:21:12;;;;;;;14.78;8.23;;;;;;;13.30;94.19;98657.33;1673738;85;21810;-82
2022/09/30 06:23:40;;;;;;;13.80;7.65;;;;;;;13.44;94.15;98664.09;1670594;86;21030;-82
2022/09/30 06:26:10;;;;;;;15.60;8.10;;;;;;;13.58;93.99;98658.27;1670831;84;21907;-81
2022/09/30 06:28:38;;;;;;;20.27;8.90;;;;;;;13.67;93.21;98656.56;1670742;84;20970;-82
2022/09/30 06:31:06;;;;;;;15.13;8.15;;;;;;;13.70;93.21;98660.33;1671086;86;21014;-83
2022/09/30 06:33:34;;;;;;;12.53;7.45;;;;;;;13.84;93.16;98662.79;1657157;86;21101;-81
2022/09/30 06:36:03;;;;;;;13.30;7.15;;;;;;;13.90;92.52;98660.73;1667799;86;21664;-82
2022/09/30 06:38:33;;;;;;;14.20;7.17;;;;;;;13.93;92.63;98658.00;1657052;86;20985;-80
2022/09/30 06:41:00;;;;;;;15.43;7.85;;;;;;;13.92;92.10;98672.43;1624212;87;21087;-85
2022/09/30 06:43:28;;;;;;;14.58;7.92;;;;;;;13.83;91.56;98667.64;1638497;87;21522;-84
2022/09/30 06:45:55;;;;;;;14.43;7.92;;;;;;;13.82;91.66;98658.09;1665666;86;20979;-86
2022/09/30 06:48:23;;;;;;;13.88;8.40;;;;;;;13.75;91.59;98660.14;1671204;86;21033;-82
2022/09/30 06:50:52;;;;;;;14.13;7.55;;;;;;;13.82;91.92;98669.85;1666205;86;21129;-82
2022/09/30 06:53:20;;;;;;;14.38;7.45;;;;;;;13.87;91.90;98676.57;1657255;85;21048;-81
2022/09/30 06:55:47;;;;;;;16.17;8.08;;;;;;;13.91;91.79;98683.35;1617363;88;20992;-82
2022/09/30 06:58:15;;;;;;;16.27;7.78;;;;;;;13.88;91.24;98683.94;1621518;87;21550;-81
2022/09/30 07:00:43;;;;;;;16.27;7.12;;;;;;;13.88;90.91;98682.63;1644269;87;21109;-81
2022/09/30 07:03:19;;;;;;;19.02;9.10;;;;;;;13.87;90.97;98693.55;1630107;88;20985;-85
2022/09/30 07:05:56;;;;;;;17.40;8.08;;;;;;;13.84;90.96;98695.45;1630115;86;21067;-82
2022/09/30 07:08:30;;;;;;;15.38;8.00;;;;;;;13.83;90.92;98691.16;1627311;87;21057;-85
2022/09/30 07:11:00;;;;;;;18.60;7.42;;;;;;;13.87;91.18;98682.27;1633712;86;21619;-82
2022/09/30 07:13:28;;;;;;;20.52;7.87;;;;;;;13.90;91.20;98682.95;1632985;86;20961;-82
2022/09/30 07:15:56;;;;;;;17.92;7.28;;;;;;;13.99;91.57;98699.16;1632877;86;21072;-80
2022/09/30 07:18:29;;;;;;;18.27;6.78;;;;;;;14.06;91.62;98705.31;1643206;86;20981;-87
2022/09/30 07:20:57;;;;;;;21.75;7.90;;;;;;;14.17;91.54;98708.77;1641805;87;21133;-83
2022/09/30 07:23:25;;;;;;;15.13;7.12;;;;;;;14.30;91.17;98723.41;1646811;86;21053;-86
2022/09/30 07:25:56;;;;;;;11.40;6.08;;;;;;;14.39;90.50;98713.84;1642676;86;21038;-85
2022/09/30 07:28:28;;;;;;;14.28;7.12;;;;;;;14.31;89.84;98710.74;1640566;86;20990;-83
2022/09/30 07:30:55;;;;;;;16.23;7.03;;;;;;;14.36;89.98;98714.44;1645343;86;21025;-86
2022/09/30 07:33:24;;;;;;;13.20;6.70;;;;;;;14.45;89.82;98717.48;1643350;86;21104;-86
2022/09/30 07:35:53;;;;;;;11.48;6.45;;;;;;;14.49;89.36;98723.42;1639585;87;21777;-88
2022/09/30 07:38:25;;;;;;;13.62;7.25;;;;;;;14.59;89.66;98727.79;1643996;86;21553;-85
2022/09/30 07:41:02;;;;;;;12.93;6.95;;;;;;;14.65;89.49;98720.95;1647903;87;21008;-90
2022/09/30 07:43:33;;;;;;;15.98;8.10;;;;;;;14.75;89.34;98722.20;1642022;87;21021;-90
2022/09/30 07:46:11;;;;;;;13.43;7.28;;;;;;;14.89;88.86;98734.16;1640892;87;21013;-81
2022/09/30 07:48:49;;;;;;;14.50;7.40;;;;;;;14.95;89.14;98736.95;1641288;86;21029;-82
2022/09/30 07:51:30;;;;;;;14.33;6.62;;;;;;;14.99;88.84;98734.56;1645849;86;21100;-82
2022/09/30 07:54:04;;;;;;;15.10;6.83;;;;;;;15.02;88.24;98738.79;1646635;86;21609;-85
2022/09/30 07:56:33;;;;;;;11.43;6.30;;;;;;;14.95;88.00;98745.27;1645863;86;21556;-86
2022/09/30 07:59:01;;;;;;;11.50;5.95;;;;;;;14.93;88.18;98745.33;1650634;85;21033;-81
2022/09/30 08:01:30;;;;;;;9.95;6.00;;;;;;;14.99;88.51;98750.73;1670802;85;21140;-86
2022/09/30 08:04:02;;;;;;;16.55;6.95;;;;;;;15.10;88.66;98744.05;1663169;86;20990;-85
2022/09/30 08:06:34;;;;;;;12.88;6.67;;;;;;;15.18;87.82;98744.99;1672184;86;21002;-85
2022/09/30 08:09:02;;;;;;;15.40;6.83;;;;;;;15.13;87.83;98746.97;1659570;85;21040;-81
2022/09/30 08:11:36;;;;;;;25.88;13.25;;;;;;;15.16;88.03;98745.53;1664148;86;21093;-86
2022/09/30 08:14:04;;;;;;;24.20;10.30;;;;;;;15.21;88.16;98754.45;1667918;86;21018;-89
2022/09/30 08:16:32;;;;;;;20.57;10.18;;;;;;;15.23;87.44;98767.02;1670120;86;21608;-84
2022/09/30 08:19:01;;;;;;;21.82;9.78;;;;;;;15.28;87.29;98759.78;1665676;86;21568;-86
2022/09/30 08:21:29;;;;;;;22.20;9.55;;;;;;;15.34;87.27;98767.77;1667969;86;20975;-90
2022/09/30 08:23:57;;;;;;;23.95;9.60;;;;;;;15.48;87.69;98764.03;1672722;84;21545;-84
2022/09/30 08:26:25;;;;;;;20.32;9.68;;;;;;;15.63;87.88;98764.53;1671938;84;21081;-85
2022/09/30 08:28:52;;;;;;;20.92;8.50;;;;;;;15.75;87.86;98768.34;1674046;86;20999;-89
2022/09/30 08:31:23;;;;;;;21.80;10.28;;;;;;;15.95;88.07;98771.23;1664235;86;20978;-87
2022/09/30 08:33:51;;;;;;;21.27;9.15;;;;;;;16.13;88.36;98772.04;1673020;86;21077;-86
2022/09/30 08:36:24;;;;;;;19.12;9.25;;;;;;;16.32;87.09;98777.64;1663081;85;20951;-89
2022/09/30 08:38:53;;;;;;;16.85;8.70;;;;;;;16.43;85.70;98785.31;1643708;86;21052;-90
2022/09/30 08:41:46;;;;;;;19.60;9.08;;;;;;;16.60;86.62;98784.86;1612876;88;20976;-86
2022/09/30 08:44:31;;;;;;;13.00;6.80;;;;;;;16.75;85.59;98805.47;1623993;87;20984;-90
2022/09/30 08:47:31;;;;;;;17.70;7.87;;;;;;;16.88;85.03;98809.15;1642850;86;21045;-91
2022/09/30 08:50:28;;;;;;;17.02;6.60;;;;;;;16.96;84.42;98814.81;1665168;86;21029;-87
2022/09/30 08:53:04;;;;;;;14.20;7.20;;;;;;;17.07;83.66;98819.02;1674524;86;21045;-89
2022/09/30 08:55:42;;;;;;;12.10;6.28;;;;;;;17.07;82.31;98819.02;1672969;86;21018;-86
2022/09/30 08:58:20;;;;;;;14.70;6.75;;;;;;;17.22;83.32;98821.70;1669037;86;21013;-88
2022/09/30 09:00:51;;;;;;;12.10;6.95;;;;;;;17.33;83.07;98810.56;1662185;86;21090;-86
2022/09/30 09:03:25;;;;;;;18.80;6.92;;;;;;;17.48;83.00;98797.86;1647489;86;21011;-88
2022/09/30 09:06:09;;;;;;;17.57;7.55;;;;;;;17.62;82.94;98809.73;1672993;86;21014;-85
2022/09/30 09:08:54;;;;;;;12.82;6.97;;;;;;;17.75;82.92;98812.98;1672201;85;21074;-87
2022/09/30 09:11:27;;;;;;;14.25;6.97;;;;;;;17.90;82.31;98804.19;1672138;85;20982;-87
2022/09/30 09:14:10;;;;;;;;;;;;;;;17.91;81.84;98795.38;1671489;86;21518;-86
2022/09/30 09:17:06;;;;;;;14.87;6.67;;;;;;;18.11;82.06;98793.33;1672898;85;20133;-91
2022/09/30 09:19:41;;;;;;;19.35;8.58;;;;;;;18.25;81.93;98784.95;1674893;84;21026;-90
2022/09/30 09:22:10;;;;;;;29.48;12.90;;;;;;;18.42;81.66;98788.32;1671001;84;21061;-90
2022/09/30 09:24:48;;;;;;;19.65;8.50;;;;;;;18.59;81.25;98790.75;1672246;86;21037;-87
2022/09/30 09:27:21;;;;;;;13.32;7.90;;;;;;;18.77;81.25;98787.91;1662330;84;21021;-90
2022/09/30 09:30:01;;;;;;;12.70;6.55;;;;;;;18.97;80.80;98796.72;1664318;83;20990;-91
2022/09/30 09:32:29;;;;;;;13.28;6.30;;;;;;;19.11;79.00;98793.67;1658025;85;20998;-88
2022/09/30 09:35:02;;;;;;;13.25;6.15;;;;;;;19.19;78.47;98796.65;1669876;86;21007;-89
2022/09/30 09:41:02;;;;;;;6.90;4.12;;;;;;;19.42;79.02;98792.52;1671699;84;21034;-82
2022/09/30 09:43:50;;;;;;;10.45;4.67;;;;;;;19.60;77.67;98789.95;1665124;86;20971;-92
2022/09/30 09:46:27;;;;;;;8.53;5.08;;;;;;;19.70;77.88;98790.19;1668322;86;20998;-90
2022/09/30 09:49:22;;;;;;;6.60;4.20;;;;;;;19.92;77.35;98790.08;1674590;86;21490;-89
2022/09/30 09:52:22;;;;;;;9.93;4.03;;;;;;;20.07;75.77;98789.01;1672130;86;21001;-89
2022/09/30 09:54:55;;;;;;;7.55;3.70;;;;;;;20.10;75.70;98774.78;1670830;85;21017;-89
2022/09/30 09:57:26;;;;;;;8.38;3.95;;;;;;;20.17;75.29;98761.50;1673228;85;21026;-89
2022/09/30 10:03:20;;;;;;;7.33;3.62;;;;;;;20.43;75.06;98757.89;1638278;86;20117;-89
2022/09/30 10:06:05;;;;;;;9.85;3.70;;;;;;;20.48;73.74;98754.08;1662562;86;20977;-89
2022/09/30 10:08:38;;;;;;;7.35;3.60;;;;;;;20.46;71.58;98756.34;1668101;84;21030;-89
2022/09/30 10:11:22;;;;;;;11.88;4.72;;;;;;;20.49;69.13;98766.31;1671437;84;21030;-88
2022/09/30 10:13:59;;;;;;;11.43;4.58;;;;;;;20.59;72.32;98773.97;1670969;84;21052;-87
2022/09/30 10:16:36;;;;;;;8.85;4.10;;;;;;;20.65;71.48;98773.53;1675757;84;20978;-91
2022/09/30 10:19:22;;;;;;;6.70;3.77;;;;;;;20.61;72.00;98774.70;1433226;83;10000540;-86
2022/09/30 10:21:50;;;;;;;6.95;4.22;;;;;;;20.60;71.73;98775.67;1647660;86;21008;-89
2022/09/30 10:24:25;;;;;;;7.87;4.03;;;;;;;20.71;72.36;98769.16;1674949;84;21017;-89
2022/09/30 10:26:53;;;;;;;11.08;4.15;;;;;;;20.83;72.40;98770.91;1667268;84;21002;-89
2022/09/30 10:29:33;;;;;;;7.40;4.15;;;;;;;20.90;72.15;98757.25;1668425;86;21007;-87
2022/09/30 10:32:07;;;;;;;6.70;4.20;;;;;;;21.01;72.01;98755.99;1674517;84;20994;-84
2022/09/30 10:34:40;;;;;;;8.78;4.50;;;;;;;21.24;71.38;98751.63;1673814;84;21156;-90
2022/09/30 10:37:18;;;;;;;10.88;4.42;;;;;;;21.31;71.60;98756.83;1647451;86;21045;-88
2022/09/30 10:40:02;;;;;;;12.10;4.30;;;;;;;21.36;71.02;98763.92;1669028;85;21038;-89
2022/09/30 10:42:33;;;;;;;7.65;4.65;;;;;;;21.39;70.96;98757.59;1671065;84;21022;-86
2022/09/30 10:45:08;;;;;;;9.18;3.95;;;;;;;21.43;70.12;98756.42;1635548;86;21572;-87
2022/09/30 10:47:46;;;;;;;9.63;4.33;;;;;;;21.47;70.53;98768.45;1655214;86;21492;-87
2022/09/30 10:50:20;;;;;;;11.97;4.10;;;;;;;21.47;70.49;98760.98;1674227;86;21016;-87
2022/09/30 10:53:14;;;;;;;8.43;3.70;;;;;;;21.55;70.31;98767.39;1677517;85;21230;-88
2022/09/30 10:55:44;;;;;;;7.40;4.03;;;;;;;21.59;70.56;98771.50;1670583;86;21016;-89
2022/09/30 10:58:49;;;;;;;8.13;3.72;;;;;;;21.71;70.62;98766.24;1677677;84;21110;-88
2022/09/30 11:01:28;;;;;;;11.80;4.10;;;;;;;21.84;70.48;98772.26;1658516;86;21113;-89
2022/09/30 11:04:20;;;;;;;5.62;4.12;;;;;;;21.91;69.45;98771.33;1668882;86;21538;-88
2022/09/30 11:06:53;;;;;;;8.57;3.90;;;;;;;21.96;68.89;98779.25;1654933;86;20998;-87
2022/09/30 11:09:41;;;;;;;5.70;3.30;;;;;;;22.12;68.95;98775.42;1666925;84;21880;-88
2022/09/30 11:12:20;;;;;;;7.50;3.22;;;;;;;22.21;66.00;98779.52;1657988;85;20971;-85
2022/09/30 11:15:14;;;;;;;7.05;3.65;;;;;;;22.32;67.71;98780.51;1673577;84;21028;-89
2022/09/30 11:17:55;;;;;;;7.10;3.12;;;;;;;22.43;66.94;98774.73;1655073;86;21022;-86
2022/09/30 11:20:31;;;;;;;5.60;2.62;;;;;;;22.60;66.22;98789.76;1672047;86;21018;-86
2022/09/30 11:23:16;;;;;;;13.00;3.22;;;;;;;22.69;65.50;98782.90;1651014;86;21052;-90
2022/09/30 11:26:05;;;;;;;13.60;3.02;;;;;;;22.81;64.00;98788.53;1632268;86;21007;-87
2022/09/30 11:28:40;;;;;;;8.00;2.90;;;;;;;23.06;65.16;98780.80;1633767;86;20980;-89
2022/09/30 11:34:17;;;;;;;5.53;2.75;;;;;;;23.53;63.27;98789.77;1661096;86;21025;-83
2022/09/30 11:36:59;;;;;;;5.83;2.58;;;;;;;23.64;62.37;98795.02;1624108;86;21009;-84
2022/09/30 11:39:44;;;;;;;7.95;3.05;;;;;;;23.84;62.04;98794.70;1653873;86;21178;-86
2022/09/30 11:42:54;;;;;;;5.87;2.98;;;;;;;24.14;63.18;98791.72;1653016;85;21860;-83
2022/09/30 11:55:56;;;;;;;5.03;1.98;;;;;;;25.67;56.43;98785.70;1655392;86;21005;-87
2022/09/30 11:58:37;;;;;;;5.35;2.30;;;;;;;25.86;55.58;98789.64;1658318;86;21080;-85
2022/09/30 12:01:22;;;;;;;4.17;2.17;;;;;;;26.09;50.02;98788.86;1656904;85;21042;-87
2022/09/30 12:03:58;;;;;;;6.95;2.12;;;;;;;26.28;52.61;98789.30;1656775;85;21535;-85
2022/09/30 12:06:52;;;;;;;7.05;2.30;;;;;;;26.39;52.45;98794.92;1662304;85;20961;-83
2022/09/30 12:09:33;;;;;;;4.45;1.90;;;;;;;26.48;52.72;98795.39;1659182;86;21009;-83
2022/09/30 12:12:05;;;;;;;6.85;2.95;;;;;;;26.68;50.72;98790.83;1661131;85;21016;-80
2022/09/30 12:14:48;;;;;;;21.07;3.60;;;;;;;26.88;51.79;98790.69;1673033;84;21058;-83
2022/09/30 12:17:33;;;;;;;8.25;2.65;;;;;;;26.97;48.54;98798.63;1670028;84;20985;-82
2022/09/30 12:20:35;;;;;;;4.83;2.45;;;;;;;27.12;49.80;98806.97;1661323;86;21036;-83
2022/09/30 12:23:31;;;;;;;5.83;2.25;;;;;;;27.31;48.40;98810.52;1674483;84;21023;-83
2022/09/30 12:26:02;;;;;;;7.53;2.30;;;;;;;27.44;48.86;98805.64;1673273;86;21010;-83